Time;durP1;ratioP1;P1;durP2;ratioP2;P2;SDS_P1;SDS_P2;PMS_P1;PMS_P2;Temp;Humidity;BMP_temperature;BMP_pressure;BME280_temperature;BME280_humidity;BME280_pressure;Samples;Min_cycle;Max_cycle;Signal;HPM_P1;HPM_P2
2023/02/22 00:00:41;;;;;;;;;58.25;48.00;;;;;10.23;100.00;100945.75;5123081;27;46101;-75
2023/02/22 00:03:14;;;;;;;;;55.25;46.50;;;;;10.22;100.00;100936.97;5143758;27;46361;-75
2023/02/22 00:05:45;;;;;;;;;57.75;47.25;;;;;10.25;100.00;100940.28;5143548;27;45345;-75
2023/02/22 00:08:13;;;;;;;;;59.00;46.50;;;;;10.19;100.00;100925.84;5138286;27;45302;-75
2023/02/22 00:10:39;;;;;;;;;58.25;48.00;;;;;10.26;100.00;100941.97;5124947;27;47137;-75
2023/02/22 00:13:06;;;;;;;;;58.50;47.00;;;;;10.26;100.00;100937.47;5123012;27;47235;-75
2023/02/22 00:15:32;;;;;;;;;56.50;47.25;;;;;10.29;100.00;100936.28;5125005;27;45431;-75
2023/02/22 00:17:59;;;;;;;;;54.00;46.00;;;;;10.29;100.00;100926.50;5143681;27;45299;-75
2023/02/22 00:20:24;;;;;;;;;55.50;45.75;;;;;10.30;100.00;100930.81;5143389;27;45821;-75
2023/02/22 00:22:50;;;;;;;;;57.25;47.00;;;;;10.29;100.00;100923.00;5124479;27;47328;-75
2023/02/22 00:25:21;;;;;;;;;56.00;47.00;;;;;10.33;100.00;100929.66;5143457;27;45269;-75
2023/02/22 00:27:51;;;;;;;;;60.00;47.50;;;;;10.31;100.00;100929.00;5124774;27;45472;-75
2023/02/22 00:30:22;;;;;;;;;54.75;46.25;;;;;10.34;100.00;100928.66;5143318;27;45482;-75
2023/02/22 00:32:49;;;;;;;;;55.75;45.00;;;;;10.31;100.00;100924.50;5143094;27;45956;-75
2023/02/22 00:35:16;;;;;;;;;57.00;47.00;;;;;10.33;100.00;100922.50;5141798;27;45468;-75
2023/02/22 00:37:42;;;;;;;;;54.00;44.00;;;;;10.33;100.00;100919.84;5142864;27;45320;-75
2023/02/22 00:40:13;;;;;;;;;58.75;48.00;;;;;10.32;100.00;100915.53;5143077;27;45566;-75
2023/02/22 00:42:39;;;;;;;;;54.00;45.75;;;;;10.39;100.00;100921.03;5124159;27;46935;-75
2023/02/22 00:45:06;;;;;;;;;52.00;44.00;;;;;10.39;100.00;100914.88;5142970;27;45294;-75
2023/02/22 00:47:31;;;;;;;;;55.75;46.25;;;;;10.41;100.00;100920.81;5124561;27;45479;-75
2023/02/22 00:49:57;;;;;;;;;52.75;44.25;;;;;10.40;100.00;100914.69;5142967;27;45309;-74
2023/02/22 00:52:22;;;;;;;;;51.50;42.00;;;;;10.41;100.00;100916.34;5123883;27;47148;-75
2023/02/22 00:54:48;;;;;;;;;55.00;43.00;;;;;10.40;100.00;100904.06;5143047;27;45287;-75
2023/02/22 00:57:13;;;;;;;;;54.50;44.00;;;;;10.42;100.00;100906.56;5141611;27;45428;-75
2023/02/22 00:59:39;;;;;;;;;58.00;46.50;;;;;10.42;100.00;100907.38;5142695;27;45503;-75
2023/02/22 01:02:04;;;;;;;;;53.00;45.00;;;;;10.44;100.00;100896.56;5142665;27;45273;-75
2023/02/22 01:04:29;;;;;;;;;52.50;44.00;;;;;10.49;100.00;100902.25;5142829;27;45377;-75
2023/02/22 01:06:55;;;;;;;;;52.25;44.25;;;;;10.48;100.00;100904.06;5142331;27;45318;-75
2023/02/22 01:09:21;;;;;;;;;50.25;42.75;;;;;10.46;100.00;100900.78;5142772;27;45346;-75
2023/02/22 01:11:47;;;;;;;;;54.50;45.25;;;;;10.51;100.00;100899.44;5123107;27;48565;-75
2023/02/22 01:14:13;;;;;;;;;59.25;48.50;;;;;10.51;100.00;100892.31;5123719;27;45376;-75
2023/02/22 01:16:38;;;;;;;;;59.50;47.25;;;;;10.56;100.00;100897.91;5142432;27;45456;-75
2023/02/22 01:19:05;;;;;;;;;56.50;45.75;;;;;10.59;100.00;100888.78;5142771;27;45456;-75
2023/02/22 01:21:30;;;;;;;;;65.25;52.25;;;;;10.58;100.00;100887.97;5123260;27;47123;-75
2023/02/22 01:23:56;;;;;;;;;61.25;50.00;;;;;10.63;100.00;100876.81;5123495;27;45450;-74
2023/02/22 01:26:21;;;;;;;;;63.00;50.75;;;;;10.66;100.00;100875.63;5123769;27;45309;-74
2023/02/22 01:28:46;;;;;;;;;69.75;54.50;;;;;10.68;100.00;100868.31;5142304;27;45547;-75
2023/02/22 01:31:12;;;;;;;;;67.50;53.75;;;;;10.67;100.00;100864.84;5142377;27;45268;-74
2023/02/22 01:33:38;;;;;;;;;68.25;54.25;;;;;10.73;100.00;100872.13;5142243;27;45354;-75
2023/02/22 01:36:10;;;;;;;;;65.75;53.75;;;;;10.75;100.00;100871.13;5142221;27;45331;-74
2023/02/22 01:38:36;;;;;;;;;60.00;49.25;;;;;10.75;100.00;100863.16;5123453;27;46546;-74
2023/02/22 01:41:01;;;;;;;;;55.50;46.75;;;;;10.80;100.00;100871.41;5141921;27;46219;-75
2023/02/22 01:43:29;;;;;;;;;56.00;45.50;;;;;10.81;100.00;100865.13;5142131;27;45280;-74
2023/02/22 01:46:13;;;;;;;;;56.25;46.00;;;;;10.81;100.00;100865.13;5142006;27;45282;-74
2023/02/22 01:48:59;;;;;;;;;56.25;47.25;;;;;10.77;100.00;100866.47;5142054;27;45320;-75
2023/02/22 01:51:30;;;;;;;;;51.25;43.50;;;;;10.78;100.00;100876.94;5130604;27;45483;-74
2023/02/22 01:54:05;;;;;;;;;57.00;46.50;;;;;10.70;100.00;100864.50;5122858;27;45522;-74
2023/02/22 01:56:35;;;;;;;;;55.50;46.25;;;;;10.70;100.00;100867.16;5123304;27;45400;-74
2023/02/22 01:59:09;;;;;;;;;65.00;52.00;;;;;10.66;100.00;100860.53;5122920;27;45490;-74
2023/02/22 02:01:36;;;;;;;;;60.50;50.00;;;;;10.68;100.00;100871.81;5141811;27;45256;-74
2023/02/22 02:04:08;;;;;;;;;63.00;50.00;;;;;10.67;100.00;100864.00;5141994;27;45830;-75
2023/02/22 02:06:35;;;;;;;;;65.75;50.75;;;;;10.65;100.00;100855.38;5141416;27;45308;-74
2023/02/22 02:09:23;;;;;;;;;59.75;49.25;;;;;10.64;100.00;100853.72;5122868;27;45585;-74
2023/02/22 02:11:49;;;;;;;;;65.75;52.50;;;;;10.65;100.00;100858.84;5141631;27;46253;-75
2023/02/22 02:14:15;;;;;;;;;64.25;50.50;;;;;10.63;100.00;100855.56;5141382;27;45340;-74
2023/02/22 02:16:44;;;;;;;;;63.25;49.00;;;;;10.64;100.00;100853.72;5141683;27;45234;-74
2023/02/22 02:19:24;;;;;;;;;57.00;45.50;;;;;10.64;100.00;100853.72;5141616;27;45690;-74
2023/02/22 02:22:14;;;;;;;;;61.00;48.50;;;;;10.60;100.00;100861.22;5141253;27;45323;-74
2023/02/22 02:24:54;;;;;;;;;58.75;49.00;;;;;10.54;100.00;100865.34;5141003;27;45355;-74
2023/02/22 02:27:26;;;;;;;;;62.25;49.50;;;;;10.49;100.00;100857.09;5141419;27;45323;-74
2023/02/22 02:30:21;;;;;;;;;60.00;49.00;;;;;10.47;100.00;100859.06;5141048;27;45631;-74
2023/02/22 02:33:03;;;;;;;;;58.50;48.75;;;;;10.42;100.00;100858.75;5141262;27;45779;-74
2023/02/22 02:35:46;;;;;;;;;60.50;47.75;;;;;10.42;100.00;100858.75;5139831;27;46004;-74
2023/02/22 02:38:20;;;;;;;;;56.25;46.75;;;;;10.41;100.00;100854.41;5141463;27;45337;-74
2023/02/22 02:41:22;;;;;;;;;58.00;46.75;;;;;10.34;100.00;100846.28;5122348;27;47212;-74
2023/02/22 02:44:01;;;;;;;;;60.25;49.25;;;;;10.42;100.00;100850.75;5125098;27;45340;-74
2023/02/22 02:47:01;;;;;;;;;59.25;48.00;;;;;10.40;100.00;100842.97;5141162;27;45351;-74
2023/02/22 02:49:36;;;;;;;;;58.00;46.75;;;;;10.39;100.00;100835.16;5141159;27;45416;-75
2023/02/22 02:52:04;;;;;;;;;60.00;49.25;;;;;10.39;100.00;100830.69;5122157;27;46269;-74
2023/02/22 02:54:31;;;;;;;;;56.75;45.50;;;;;10.41;100.00;100835.81;5141146;27;45356;-75
2023/02/22 02:56:56;;;;;;;;;55.75;45.00;;;;;10.43;100.00;100837.31;5140692;27;45363;-75
2023/02/22 02:59:38;;;;;;;;;56.50;45.50;;;;;10.44;100.00;100832.81;5139754;27;45316;-75
2023/02/22 03:02:22;;;;;;;;;57.75;45.75;;;;;10.45;100.00;100831.81;5140867;27;45328;-75
2023/02/22 03:05:09;;;;;;;;;53.75;45.00;;;;;10.44;100.00;100828.34;5121551;27;45978;-75
2023/02/22 03:07:59;;;;;;;;;57.25;45.50;;;;;10.43;100.00;100832.00;5140636;27;45463;-74
2023/02/22 03:10:52;;;;;;;;;55.75;43.50;;;;;10.43;100.00;100821.38;5122036;27;45413;-75
2023/02/22 03:13:29;;;;;;;;;53.25;42.00;;;;;10.41;100.00;100825.19;5121880;27;46579;-75
2023/02/22 03:16:04;;;;;;;;;53.75;43.50;;;;;10.43;100.00;100818.72;5123612;27;46250;-74
2023/02/22 03:18:44;;;;;;;;;51.75;42.25;;;;;10.43;100.00;100816.06;5140423;27;45344;-74
2023/02/22 03:21:12;;;;;;;;;51.75;43.75;;;;;10.42;100.00;100811.72;5140408;27;45259;-74
2023/02/22 03:24:07;;;;;;;;;52.50;45.25;;;;;10.42;100.00;100805.59;5121892;27;45350;-75
2023/02/22 03:26:46;;;;;;;;;57.00;45.75;;;;;10.50;100.00;100800.28;5140388;27;46383;-74
2023/02/22 03:29:16;;;;;;;;;58.00;47.00;;;;;10.41;100.00;100803.91;5140297;27;45291;-74
2023/02/22 03:31:49;;;;;;;;;55.25;44.50;;;;;10.41;100.00;100802.09;5140900;27;45371;-74
2023/02/22 03:34:19;;;;;;;;;53.00;44.25;;;;;10.38;100.00;100805.09;5140140;27;45441;-74
2023/02/22 03:36:54;;;;;;;;;53.00;43.75;;;;;10.41;100.00;100804.75;5125365;27;48056;-74
2023/02/22 03:39:29;;;;;;;;;51.25;42.75;;;;;10.41;100.00;100811.88;5144078;27;45281;-74
2023/02/22 03:41:59;;;;;;;;;56.75;45.75;;;;;10.40;100.00;100805.75;5142655;27;45400;-74
2023/02/22 03:44:29;;;;;;;;;49.75;40.75;;;;;10.41;100.00;100812.72;5143634;27;45316;-75
2023/02/22 03:46:58;;;;;;;;;50.50;42.75;;;;;10.40;100.00;100808.44;5143772;27;46008;-74
2023/02/22 03:49:36;;;;;;;;;47.75;40.00;;;;;10.38;100.00;100806.94;5130492;27;45334;-75
2023/02/22 03:52:03;;;;;;;;;51.25;42.25;;;;;10.72;100.00;100800.53;5143681;27;45329;-74
2023/02/22 03:54:30;;;;;;;;;51.00;42.25;;;;;10.44;100.00;100801.75;5125188;27;46917;-74
2023/02/22 03:57:01;;;;;;;;;51.75;42.25;;;;;10.40;100.00;100799.63;5143551;27;45583;-74
2023/02/22 03:59:28;;;;;;;;;50.75;42.25;;;;;10.42;100.00;100798.44;5125066;27;45559;-75
2023/02/22 04:01:55;;;;;;;;;49.25;42.00;;;;;10.43;100.00;100807.25;5143879;27;45555;-74
2023/02/22 04:04:22;;;;;;;;;50.75;43.25;;;;;10.42;100.00;100802.94;5125284;27;45325;-75
2023/02/22 04:06:48;;;;;;;;;50.50;43.25;;;;;10.36;100.00;100793.84;5143164;27;45394;-74
2023/02/22 04:09:15;;;;;;;;;50.75;42.25;;;;;10.35;100.00;100805.44;5124965;27;46355;-74
2023/02/22 04:11:40;;;;;;;;;50.50;43.25;;;;;10.33;100.00;100804.81;5125112;27;45356;-75
2023/02/22 04:14:05;;;;;;;;;47.00;39.75;;;;;10.29;100.00;100809.63;5142168;27;45686;-74
2023/02/22 04:16:31;;;;;;;;;49.25;42.25;;;;;10.24;100.00;100793.38;5143326;27;45465;-74
2023/02/22 04:18:56;;;;;;;;;52.00;44.00;;;;;10.26;100.00;100794.00;5143731;27;45368;-75
2023/02/22 04:21:22;;;;;;;;;50.25;42.75;;;;;10.23;100.00;100795.19;5143482;27;45267;-74
2023/02/22 04:23:47;;;;;;;;;51.00;42.75;;;;;10.22;100.00;100796.19;5143288;27;45659;-75
2023/02/22 04:26:12;;;;;;;;;51.25;42.25;;;;;10.21;100.00;100797.19;5143343;27;45316;-75
2023/02/22 04:28:38;;;;;;;;;49.75;41.25;;;;;10.16;100.00;100791.56;5124687;27;45676;-75
2023/02/22 04:31:03;;;;;;;;;49.25;41.00;;;;;10.17;100.00;100792.38;5143267;27;45364;-75
2023/02/22 04:33:29;;;;;;;;;52.75;42.50;;;;;10.15;100.00;100797.84;5121081;27;46557;-74
2023/02/22 04:35:56;;;;;;;;;51.50;43.75;;;;;10.10;100.00;100787.75;5138749;27;45322;-75
2023/02/22 04:38:22;;;;;;;;;52.75;43.75;;;;;10.07;100.00;100792.56;5143326;27;45283;-75
2023/02/22 04:40:47;;;;;;;;;55.00;44.00;;;;;10.03;100.00;100791.25;5143065;27;45602;-74
2023/02/22 04:43:13;;;;;;;;;52.75;43.00;;;;;9.98;100.00;100789.13;5124341;27;47255;-75
2023/02/22 04:45:38;;;;;;;;;48.75;41.25;;;;;9.94;100.00;100779.84;5142494;27;45312;-74
2023/02/22 04:48:03;;;;;;;;;49.25;42.50;;;;;9.94;100.00;100793.09;5142292;27;45323;-75
2023/02/22 04:50:29;;;;;;;;;47.50;41.00;;;;;9.90;100.00;100792.59;5124420;27;45336;-74
2023/02/22 04:52:55;;;;;;;;;52.75;43.00;;;;;9.87;100.00;100795.59;5142947;27;45347;-75
2023/02/22 04:55:21;;;;;;;;;49.00;41.75;;;;;9.82;100.00;100782.81;5142792;27;45393;-75
2023/02/22 04:57:46;;;;;;;;;51.75;43.00;;;;;9.82;100.00;100787.31;5142797;27;45455;-74
2023/02/22 05:00:16;;;;;;;;;53.75;43.75;;;;;9.87;100.00;100792.94;5142792;27;45356;-74
2023/02/22 05:02:41;;;;;;;;;54.00;44.75;;;;;9.84;100.00;100796.75;5124233;27;47310;-74
2023/02/22 05:05:07;;;;;;;;;52.50;43.00;;;;;9.84;100.00;100786.16;5142102;27;46110;-75
2023/02/22 05:07:32;;;;;;;;;50.25;41.25;;;;;9.84;100.00;100794.13;5123955;27;45442;-75
2023/02/22 05:09:57;;;;;;;;;50.25;42.50;;;;;9.86;100.00;100788.63;5142793;27;45522;-75
2023/02/22 05:12:25;;;;;;;;;56.25;45.25;;;;;9.89;100.00;100787.47;5142734;27;45275;-74
2023/02/22 05:14:51;;;;;;;;;52.25;43.25;;;;;9.91;100.00;100791.59;5123523;27;47155;-75
2023/02/22 05:17:17;;;;;;;;;50.75;43.00;;;;;9.90;100.00;100791.75;5142477;27;45380;-74
2023/02/22 05:19:42;;;;;;;;;54.25;45.00;;;;;9.98;100.00;100794.41;5142428;27;45213;-74
2023/02/22 05:22:07;;;;;;;;;60.25;47.00;;;;;10.02;100.00;100790.41;5142457;27;45370;-74
2023/02/22 05:24:33;;;;;;;;;49.00;41.00;;;;;10.07;100.00;100797.88;5142204;27;45148;-75
2023/02/22 05:26:59;;;;;;;;;55.50;46.50;;;;;10.11;100.00;100791.22;5142560;27;45364;-75
2023/02/22 05:29:24;;;;;;;;;52.50;44.75;;;;;10.14;100.00;100804.16;5142027;27;45255;-74
2023/02/22 05:31:49;;;;;;;;;55.25;45.50;;;;;10.17;100.00;100790.56;5123761;27;46216;-74
2023/02/22 05:34:15;;;;;;;;;51.25;44.25;;;;;10.18;100.00;100794.84;5142194;27;45311;-74
2023/02/22 05:36:41;;;;;;;;;52.50;44.25;;;;;10.22;100.00;100790.88;5140992;27;45608;-74
2023/02/22 05:39:06;;;;;;;;;56.75;47.00;;;;;10.26;100.00;100790.53;5136678;27;45419;-74
2023/02/22 05:41:31;;;;;;;;;55.50;46.25;;;;;10.31;100.00;100785.53;5136727;27;45479;-74
2023/02/22 05:43:57;;;;;;;;;55.50;46.50;;;;;10.35;100.00;100793.00;5123321;27;48502;-74
2023/02/22 05:46:22;;;;;;;;;56.00;46.50;;;;;10.36;100.00;100791.19;5141905;27;45462;-74
2023/02/22 05:48:47;;;;;;;;;50.75;43.75;;;;;10.38;100.00;100785.69;5141988;27;45646;-74
2023/02/22 05:51:13;;;;;;;;;53.75;43.00;;;;;10.41;100.00;100782.66;5141737;27;45401;-74
2023/02/22 05:53:38;;;;;;;;;54.25;44.00;;;;;10.46;100.00;100785.69;5141828;27;45927;-74
2023/02/22 05:56:04;;;;;;;;;54.25;44.00;;;;;10.52;100.00;100785.00;5140485;27;45469;-74
2023/02/22 05:58:29;;;;;;;;;52.00;44.25;;;;;10.56;100.00;100793.44;5141421;27;45276;-74
2023/02/22 06:00:55;;;;;;;;;55.50;46.25;;;;;10.60;100.00;100787.59;5141945;27;45300;-74
2023/02/22 06:03:20;;;;;;;;;57.25;46.75;;;;;10.65;100.00;100796.91;5141753;27;46035;-74
2023/02/22 06:05:46;;;;;;;;;54.00;44.75;;;;;10.65;100.00;100800.38;5141604;27;45264;-74
2023/02/22 06:08:11;;;;;;;;;54.25;45.00;;;;;10.68;100.00;100801.84;5141549;27;45657;-75
2023/02/22 06:10:36;;;;;;;;;54.25;44.75;;;;;10.73;100.00;100794.19;5140170;27;46045;-73
2023/02/22 06:13:04;;;;;;;;;86.75;80.50;;;;;10.73;100.00;100795.03;5141150;27;46103;-74
2023/02/22 06:15:29;;;;;;;;;56.75;46.25;;;;;10.72;100.00;100790.69;5122962;27;45314;-73
2023/02/22 06:17:57;;;;;;;;;56.00;46.25;;;;;10.78;100.00;100799.84;5140248;27;45349;-73
2023/02/22 06:20:24;;;;;;;;;60.00;49.25;;;;;10.81;100.00;100796.78;5121900;27;47368;-74
2023/02/22 06:22:51;;;;;;;;;55.50;45.00;;;;;10.86;100.00;100793.63;5140876;27;46210;-73
2023/02/22 06:25:20;;;;;;;;;56.00;45.75;;;;;10.86;100.00;100796.28;5141268;27;45351;-74
2023/02/22 06:27:45;;;;;;;;;55.25;45.00;;;;;10.88;100.00;100796.94;5141140;27;45261;-74
2023/02/22 06:30:12;;;;;;;;;54.00;46.00;;;;;10.91;100.00;100793.94;5122536;27;47288;-73
2023/02/22 06:32:37;;;;;;;;;55.00;45.75;;;;;10.89;100.00;100793.28;5141232;27;46319;-73
2023/02/22 06:35:03;;;;;;;;;53.25;44.50;;;;;10.91;100.00;100793.09;5141032;27;45320;-75
2023/02/22 06:37:28;;;;;;;;;58.00;46.25;;;;;10.89;100.00;100784.50;5141920;27;45393;-73
2023/02/22 06:39:54;;;;;;;;;58.75;47.50;;;;;10.93;100.00;100793.75;5141432;27;45282;-73
2023/02/22 06:42:19;;;;;;;;;45.25;37.50;;;;;10.93;100.00;100799.09;5141087;27;45525;-74
2023/02/22 06:44:44;;;;;;;;;56.00;47.50;;;;;10.95;100.00;100813.84;5141222;27;45340;-72
2023/02/22 06:47:10;;;;;;;;;52.75;43.75;;;;;10.94;100.00;100803.38;5137520;27;45423;-73
2023/02/22 06:49:35;;;;;;;;;55.75;45.75;;;;;10.97;100.00;100805.69;5134603;27;45400;-72
2023/02/22 06:52:04;;;;;;;;;57.75;46.50;;;;;11.00;100.00;100813.34;5139568;27;45361;-72
2023/02/22 06:54:29;;;;;;;;;51.50;44.00;;;;;11.01;100.00;100809.66;5117568;27;45577;-72
2023/02/22 06:56:54;;;;;;;;;52.75;42.25;;;;;11.05;100.00;100804.81;5140266;27;45239;-72
2023/02/22 06:59:20;;;;;;;;;56.00;46.75;;;;;11.09;100.00;100806.97;5122327;27;45260;-72
2023/02/22 07:01:45;;;;;;;;;59.25;48.75;;;;;11.09;100.00;100808.78;5125371;27;46130;-72
2023/02/22 07:04:10;;;;;;;;;57.00;48.50;;;;;11.11;100.00;100812.91;5141072;27;45342;-72
2023/02/22 07:06:36;;;;;;;;;56.75;46.50;;;;;11.13;100.00;100815.41;5134937;27;46301;-72
2023/02/22 07:09:02;;;;;;;;;62.75;49.50;;;;;11.15;100.00;100817.88;5118647;27;46832;-72
2023/02/22 07:11:27;;;;;;;;;61.00;48.00;;;;;11.20;100.00;100815.53;5127291;27;46682;-72
2023/02/22 07:13:54;;;;;;;;;63.25;49.75;;;;;11.21;100.00;100838.47;5144573;27;45331;-72
2023/02/22 07:16:19;;;;;;;;;61.50;48.50;;;;;11.21;100.00;100834.00;5144694;27;45376;-72
2023/02/22 07:18:45;;;;;;;;;53.25;44.25;;;;;11.21;100.00;100831.31;5144390;27;45526;-72
2023/02/22 07:21:10;;;;;;;;;57.25;46.25;;;;;11.26;100.00;100827.31;5142638;27;47218;-72
2023/02/22 07:23:36;;;;;;;;;64.00;51.50;;;;;11.27;100.00;100835.13;5144692;27;45434;-72
2023/02/22 07:26:04;;;;;;;;;64.25;52.00;;;;;11.32;100.00;100850.56;5142885;27;45479;-72
2023/02/22 07:28:29;;;;;;;;;67.00;52.25;;;;;11.33;100.00;100841.56;5144432;27;45471;-72
2023/02/22 07:30:55;;;;;;;;;63.00;49.75;;;;;11.31;100.00;100832.94;5144075;27;46259;-73
2023/02/22 07:33:20;;;;;;;;;70.50;55.50;;;;;11.38;100.00;100828.56;5144357;27;45353;-73
2023/02/22 07:35:49;;;;;;;;;63.75;51.50;;;;;11.40;100.00;100833.72;5143973;27;45970;-73
2023/02/22 07:38:16;;;;;;;;;65.00;52.00;;;;;11.42;100.00;100829.84;5144295;27;45510;-73
2023/02/22 07:40:41;;;;;;;;;59.25;48.00;;;;;11.43;100.00;100830.69;5140174;27;47288;-73
2023/02/22 07:43:20;;;;;;;;;61.25;51.00;;;;;11.48;100.00;100833.63;5142571;27;45347;-73
2023/02/22 07:45:46;;;;;;;;;61.50;49.25;;;;;11.48;100.00;100833.63;5144304;27;45301;-73
2023/02/22 07:48:12;;;;;;;;;65.25;51.50;;;;;11.55;100.00;100841.75;5143921;27;45174;-73
2023/02/22 07:50:39;;;;;;;;;64.00;52.00;;;;;11.57;100.00;100837.91;5143602;27;45402;-72
2023/02/22 07:53:06;;;;;;;;;63.00;50.25;;;;;11.61;100.00;100841.84;5143996;27;45463;-72
2023/02/22 07:55:33;;;;;;;;;60.75;49.00;;;;;11.67;100.00;100850.13;5125170;27;45386;-73
2023/02/22 07:58:01;;;;;;;;;63.00;49.75;;;;;11.69;100.00;100859.59;5143789;27;45410;-73
2023/02/22 08:00:38;;;;;;;;;66.50;52.75;;;;;11.70;100.00;100844.47;5143399;27;45954;-72
2023/02/22 08:03:07;;;;;;;;;65.00;53.00;;;;;11.77;100.00;100848.06;5143695;27;45573;-72
2023/02/22 08:05:34;;;;;;;;;61.75;50.00;;;;;11.81;100.00;100844.03;5124779;27;45328;-71
2023/02/22 08:08:01;;;;;;;;;61.50;50.50;;;;;11.82;100.00;100850.19;5143412;27;45410;-72
2023/02/22 08:10:26;;;;;;;;;62.25;49.75;;;;;11.89;100.00;100850.28;5138089;27;47171;-72
2023/02/22 08:12:53;;;;;;;;;62.50;50.00;;;;;11.87;100.00;100853.13;5136428;27;45170;-72
2023/02/22 08:15:23;;;;;;;;;59.00;48.00;;;;;11.92;100.00;100857.91;5143803;27;45514;-72
2023/02/22 08:17:48;;;;;;;;;59.50;48.25;;;;;11.93;100.00;100863.06;5143323;27;46262;-72
2023/02/22 08:20:14;;;;;;;;;65.50;51.50;;;;;11.94;100.00;100861.22;5143265;27;46324;-71
2023/02/22 08:22:42;;;;;;;;;65.00;51.75;;;;;11.96;100.00;100854.72;5141897;27;45924;-73
2023/02/22 08:25:07;;;;;;;;;63.00;51.00;;;;;11.96;100.00;100870.69;5143507;27;45375;-72
2023/02/22 08:27:33;;;;;;;;;64.75;52.50;;;;;12.00;100.00;100874.63;5143090;27;45555;-72
2023/02/22 08:29:58;;;;;;;;;63.00;50.00;;;;;12.03;100.00;100873.44;5143361;27;45384;-72
2023/02/22 08:32:24;;;;;;;;;66.50;52.50;;;;;12.02;100.00;100876.28;5143282;27;45297;-72
2023/02/22 08:34:50;;;;;;;;;64.00;53.00;;;;;12.00;100.00;100877.31;5143257;27;45456;-72
2023/02/22 08:37:16;;;;;;;;;67.00;53.75;;;;;12.00;100.00;100879.97;5141346;27;46986;-72
2023/02/22 08:39:41;;;;;;;;;66.25;53.75;;;;;12.00;100.00;100876.47;5141816;27;47116;-71
2023/02/22 08:42:08;;;;;;;;;67.00;53.75;;;;;11.99;100.00;100867.66;5143103;27;45390;-72
2023/02/22 08:44:34;;;;;;;;;66.25;53.75;;;;;12.00;100.00;100865.81;5124712;27;45617;-72
2023/02/22 08:46:59;;;;;;;;;65.00;53.50;;;;;11.95;100.00;100862.88;5142679;27;45502;-72
2023/02/22 08:49:24;;;;;;;;;69.25;55.25;;;;;11.99;100.00;100869.50;5143205;27;46103;-72
2023/02/22 08:51:50;;;;;;;;;68.75;54.75;;;;;11.99;100.00;100873.00;5142674;27;45212;-72
2023/02/22 08:54:17;;;;;;;;;69.50;55.25;;;;;12.00;100.00;100884.47;5143145;27;45305;-72
2023/02/22 08:56:42;;;;;;;;;68.25;54.00;;;;;11.96;100.00;100884.00;5142886;27;45250;-72
2023/02/22 08:59:08;;;;;;;;;65.25;53.00;;;;;11.96;100.00;100885.84;5142700;27;45492;-72
2023/02/22 09:01:33;;;;;;;;;68.00;55.00;;;;;11.99;100.00;100906.78;5143044;27;45338;-71
2023/02/22 09:03:59;;;;;;;;;72.00;58.25;;;;;11.98;100.00;100900.63;5143036;27;45364;-72
2023/02/22 09:06:24;;;;;;;;;72.00;57.50;;;;;11.96;100.00;100883.16;5142311;27;45447;-72
2023/02/22 09:08:50;;;;;;;;;68.25;54.50;;;;;11.96;100.00;100885.84;5142704;27;45435;-72
2023/02/22 09:11:15;;;;;;;;;62.75;51.00;;;;;11.98;100.00;100887.31;5142680;27;45283;-72
2023/02/22 09:13:40;;;;;;;;;73.50;57.75;;;;;11.99;100.00;100875.66;5143107;27;45391;-72
2023/02/22 09:16:06;;;;;;;;;70.00;57.75;;;;;12.03;100.00;100873.44;5142433;27;45775;-72
2023/02/22 09:18:31;;;;;;;;;73.25;58.25;;;;;12.02;100.00;100873.63;5142634;27;46137;-72
2023/02/22 09:20:56;;;;;;;;;73.00;60.25;;;;;12.01;100.00;100886.13;5137094;27;45416;-72
2023/02/22 09:23:22;;;;;;;;;69.25;55.00;;;;;11.97;100.00;100885.66;5137449;27;45392;-72
2023/02/22 09:25:48;;;;;;;;;71.50;56.75;;;;;11.96;100.00;100886.66;5137286;27;45337;-72
2023/02/22 09:28:13;;;;;;;;;70.25;55.75;;;;;11.97;100.00;100892.81;5142109;27;45424;-72
2023/02/22 09:30:39;;;;;;;;;71.75;57.75;;;;;11.98;100.00;100881.16;5142281;27;45335;-72
2023/02/22 09:33:11;;;;;;;;;71.50;58.25;;;;;12.03;100.00;100875.31;5140182;27;45512;-71
2023/02/22 09:35:41;;;;;;;;;69.00;55.50;;;;;12.09;100.00;100887.94;5130602;27;45712;-71
2023/02/22 09:38:06;;;;;;;;;70.00;56.75;;;;;12.09;100.00;100880.75;5137432;27;46232;-73
2023/02/22 09:40:39;;;;;;;;;74.25;61.00;;;;;12.15;100.00;100887.19;5142086;27;45298;-73
2023/02/22 09:43:06;;;;;;;;;68.00;54.25;;;;;12.16;100.00;100894.19;5106971;27;45342;-73
2023/02/22 09:45:50;;;;;;;;;70.50;58.00;;;;;12.17;100.00;100890.50;5135802;27;45979;-73
2023/02/22 09:48:17;;;;;;;;;74.00;57.75;;;;;12.19;100.00;100893.84;5140746;27;45333;-73
2023/02/22 09:50:47;;;;;;;;;74.50;60.25;;;;;12.20;100.00;100894.63;5133014;27;45400;-73
2023/02/22 09:53:42;;;;;;;;;73.00;59.50;;;;;12.25;100.00;100886.94;5142393;27;45373;-73
2023/02/22 09:56:10;;;;;;;;;75.00;64.75;;;;;12.29;100.00;100890.91;5130784;27;45381;-74
2023/02/22 09:58:46;;;;;;;;;70.00;55.25;;;;;12.33;100.00;100896.69;5141751;27;45524;-73
2023/02/22 10:01:31;;;;;;;;;73.75;63.75;;;;;12.37;100.00;100901.47;5123487;27;45519;-74
2023/02/22 10:04:21;;;;;;;;;72.50;58.25;;;;;12.41;100.00;100901.94;5133447;27;45231;-74
2023/02/22 10:07:06;;;;;;;;;69.75;56.75;;;;;12.44;100.00;100906.06;5141286;27;45571;-73
2023/02/22 10:09:36;;;;;;;;;68.50;54.75;;;;;12.43;100.00;100894.59;5123299;27;48189;-73
2023/02/22 10:12:13;;;;;;;;;74.50;63.25;;;;;12.49;100.00;100909.84;5141597;27;45309;-73
2023/02/22 10:14:56;;;;;;;;;68.50;54.50;;;;;12.48;100.00;100894.84;5122948;27;45548;-73
2023/02/22 10:17:57;;;;;;;;;71.50;58.00;;;;;12.55;100.00;100900.28;5141801;27;45485;-74
2023/02/22 10:20:24;;;;;;;;;72.00;57.50;;;;;12.56;100.00;100899.28;5057077;28;45339;-73
2023/02/22 10:23:24;;;;;;;;;70.00;55.50;;;;;12.62;100.00;100895.88;5104924;27;45892;-73
2023/02/22 10:26:03;;;;;;;;;64.25;51.00;;;;;12.64;100.00;100901.03;5140045;27;45421;-74
2023/02/22 10:28:42;;;;;;;;;71.00;57.75;;;;;12.66;100.00;100899.00;5141686;27;45354;-73
2023/02/22 10:31:20;;;;;;;;;70.25;55.00;;;;;12.67;100.00;100903.34;5141287;27;45301;-73
2023/02/22 10:33:51;;;;;;;;;66.25;52.00;;;;;12.70;100.00;100894.97;5122870;27;45450;-73
2023/02/22 10:36:19;;;;;;;;;70.50;56.75;;;;;12.74;100.00;100885.56;5141079;27;45224;-74
2023/02/22 10:38:53;;;;;;;;;64.75;52.75;;;;;12.77;100.00;100892.38;5141344;27;45266;-73
2023/02/22 10:41:26;;;;;;;;;72.25;58.25;;;;;12.77;100.00;100892.38;5122238;27;48249;-73
2023/02/22 10:43:52;;;;;;;;;69.50;57.75;;;;;12.77;100.00;100891.53;5133273;27;45420;-73
2023/02/22 10:46:21;;;;;;;;;69.75;55.75;;;;;12.81;100.00;100898.97;5140354;27;45485;-74
2023/02/22 10:48:50;;;;;;;;;68.50;55.50;;;;;12.82;100.00;100894.50;5121780;27;46196;-73
2023/02/22 10:51:16;;;;;;;;;69.00;55.25;;;;;12.84;100.00;100901.28;5122077;27;47160;-74
2023/02/22 10:53:41;;;;;;;;;65.25;52.25;;;;;12.82;100.00;100892.66;5141205;27;45330;-74
2023/02/22 10:56:20;;;;;;;;;66.75;53.75;;;;;12.88;100.00;100899.91;5141207;27;45239;-74
2023/02/22 10:58:56;;;;;;;;;70.00;56.00;;;;;12.90;100.00;100897.03;5140812;27;45290;-74
2023/02/22 11:01:31;;;;;;;;;70.50;57.25;;;;;12.91;100.00;100890.72;5141083;27;46188;-74
2023/02/22 11:04:01;;;;;;;;;65.25;52.25;;;;;12.92;100.00;100887.03;5122900;27;45352;-74
2023/02/22 11:06:27;;;;;;;;;65.50;53.50;;;;;12.95;100.00;100897.31;5140771;27;45373;-74
2023/02/22 11:09:09;;;;;;;;;73.00;59.75;;;;;12.95;100.00;100881.31;5141310;27;45208;-74
2023/02/22 11:11:35;;;;;;;;;66.50;52.25;;;;;12.98;100.00;100885.44;5140740;27;46343;-74